sensor_id;sensor_type;location;lat;lon;timestamp;temperature;humidity
25170;DHT22;13129;48.012;10.352;2022-07-17T03:31:39;10.50;99.90
25170;DHT22;13129;48.012;10.352;2022-07-17T03:34:05;10.50;99.90
25170;DHT22;13129;48.012;10.352;2022-07-17T03:36:30;10.40;99.90
25170;DHT22;13129;48.012;10.352;2022-07-17T03:38:56;10.50;99.90
25170;DHT22;13129;48.012;10.352;2022-07-17T03:41:21;10.50;99.90
25170;DHT22;13129;48.012;10.352;2022-07-17T03:46:15;10.30;99.90
25170;DHT22;13129;48.012;10.352;2022-07-17T03:48:40;10.30;99.90
25170;DHT22;13129;48.012;10.352;2022-07-17T03:51:06;10.30;99.90
25170;DHT22;13129;48.012;10.352;2022-07-17T03:53:35;10.30;99.90
25170;DHT22;13129;48.012;10.352;2022-07-17T03:56:01;10.50;99.90
25170;DHT22;13129;48.012;10.352;2022-07-17T03:58:27;10.60;99.90
25170;DHT22;13129;48.012;10.352;2022-07-17T04:00:52;10.70;99.90
25170;DHT22;13129;48.012;10.352;2022-07-17T04:03:18;10.70;99.90
25170;DHT22;13129;48.012;10.352;2022-07-17T04:05:44;10.90;99.90
25170;DHT22;13129;48.012;10.352;2022-07-17T04:08:09;11.00;99.90
25170;DHT22;13129;48.012;10.352;2022-07-17T04:10:35;11.00;99.90
25170;DHT22;13129;48.012;10.352;2022-07-17T04:13:02;11.10;99.90
25170;DHT22;13129;48.012;10.352;2022-07-17T04:15:28;11.10;99.90
25170;DHT22;13129;48.012;10.352;2022-07-17T04:18:12;11.10;99.90
25170;DHT22;13129;48.012;10.352;2022-07-17T04:20:38;11.20;99.90
25170;DHT22;13129;48.012;10.352;2022-07-17T04:23:09;11.00;99.90
25170;DHT22;13129;48.012;10.352;2022-07-17T04:25:36;11.00;99.90
25170;DHT22;13129;48.012;10.352;2022-07-17T04:28:02;11.00;99.90
25170;DHT22;13129;48.012;10.352;2022-07-17T04:30:28;11.00;99.90
25170;DHT22;13129;48.012;10.352;2022-07-17T04:32:55;11.10;99.90
25170;DHT22;13129;48.012;10.352;2022-07-17T04:35:21;11.00;99.90
25170;DHT22;13129;48.012;10.352;2022-07-17T04:37:46;11.10;99.90
25170;DHT22;13129;48.012;10.352;2022-07-17T04:40:12;11.20;99.90
25170;DHT22;13129;48.012;10.352;2022-07-17T04:42:38;11.40;99.90
25170;DHT22;13129;48.012;10.352;2022-07-17T04:45:05;11.60;99.90
25170;DHT22;13129;48.012;10.352;2022-07-17T04:47:31;11.90;99.90
25170;DHT22;13129;48.012;10.352;2022-07-17T04:49:57;12.10;99.90
25170;DHT22;13129;48.012;10.352;2022-07-17T04:52:23;12.40;99.90
25170;DHT22;13129;48.012;10.352;2022-07-17T04:54:49;12.60;99.90
25170;DHT22;13129;48.012;10.352;2022-07-17T04:57:14;12.90;99.90
25170;DHT22;13129;48.012;10.352;2022-07-17T04:59:40;13.10;99.90
25170;DHT22;13129;48.012;10.352;2022-07-17T05:02:06;13.30;99.90
25170;DHT22;13129;48.012;10.352;2022-07-17T05:04:33;13.50;99.90
25170;DHT22;13129;48.012;10.352;2022-07-17T05:06:58;13.80;99.90
25170;DHT22;13129;48.012;10.352;2022-07-17T05:09:24;13.90;99.90
25170;DHT22;13129;48.012;10.352;2022-07-17T05:11:50;14.20;99.90
25170;DHT22;13129;48.012;10.352;2022-07-17T05:14:16;14.40;99.90
25170;DHT22;13129;48.012;10.352;2022-07-17T05:16:42;14.60;99.90
25170;DHT22;13129;48.012;10.352;2022-07-17T05:19:08;14.80;99.90
25170;DHT22;13129;48.012;10.352;2022-07-17T05:21:33;15.10;99.90
25170;DHT22;13129;48.012;10.352;2022-07-17T05:23:59;15.40;99.90
25170;DHT22;13129;48.012;10.352;2022-07-17T05:26:28;15.80;99.90
25170;DHT22;13129;48.012;10.352;2022-07-17T05:36:20;18.60;99.90
25170;DHT22;13129;48.012;10.352;2022-07-17T05:38:38;21.20;99.90
25170;DHT22;13129;48.012;10.352;2022-07-17T05:41:04;23.70;99.90
25170;DHT22;13129;48.012;10.352;2022-07-17T05:43:29;25.30;93.10
25170;DHT22;13129;48.012;10.352;2022-07-17T05:45:56;26.70;85.80
25170;DHT22;13129;48.012;10.352;2022-07-17T05:48:23;28.00;77.30
25170;DHT22;13129;48.012;10.352;2022-07-17T05:50:48;28.80;67.60
25170;DHT22;13129;48.012;10.352;2022-07-17T05:53:14;29.90;62.40
25170;DHT22;13129;48.012;10.352;2022-07-17T05:55:41;30.50;57.00
25170;DHT22;13129;48.012;10.352;2022-07-17T05:58:07;30.90;54.70
25170;DHT22;13129;48.012;10.352;2022-07-17T06:00:33;31.40;53.80
25170;DHT22;13129;48.012;10.352;2022-07-17T06:02:59;32.10;52.00
25170;DHT22;13129;48.012;10.352;2022-07-17T06:05:25;32.70;51.10
25170;DHT22;13129;48.012;10.352;2022-07-17T06:07:54;33.10;49.90
25170;DHT22;13129;48.012;10.352;2022-07-17T06:10:20;33.30;48.30
25170;DHT22;13129;48.012;10.352;2022-07-17T06:12:45;33.60;47.90
25170;DHT22;13129;48.012;10.352;2022-07-17T06:15:12;33.70;47.10
25170;DHT22;13129;48.012;10.352;2022-07-17T06:17:38;33.70;46.20
25170;DHT22;13129;48.012;10.352;2022-07-17T06:20:04;33.80;45.40
25170;DHT22;13129;48.012;10.352;2022-07-17T06:22:30;33.70;45.30
25170;DHT22;13129;48.012;10.352;2022-07-17T06:24:56;33.40;45.20
25170;DHT22;13129;48.012;10.352;2022-07-17T06:27:22;33.60;44.80
25170;DHT22;13129;48.012;10.352;2022-07-17T06:29:48;33.70;44.40
25170;DHT22;13129;48.012;10.352;2022-07-17T06:32:13;33.90;44.50
25170;DHT22;13129;48.012;10.352;2022-07-17T06:34:39;34.40;43.40
25170;DHT22;13129;48.012;10.352;2022-07-17T06:37:05;34.50;43.70
25170;DHT22;13129;48.012;10.352;2022-07-17T06:39:31;34.90;43.00
25170;DHT22;13129;48.012;10.352;2022-07-17T06:41:57;35.00;41.80
25170;DHT22;13129;48.012;10.352;2022-07-17T06:44:22;35.10;41.60
25170;DHT22;13129;48.012;10.352;2022-07-17T06:46:48;35.20;40.70
25170;DHT22;13129;48.012;10.352;2022-07-17T06:49:14;35.30;40.30
25170;DHT22;13129;48.012;10.352;2022-07-17T06:51:40;35.30;40.20
25170;DHT22;13129;48.012;10.352;2022-07-17T06:54:05;35.70;39.60
25170;DHT22;13129;48.012;10.352;2022-07-17T06:56:31;36.00;39.40
25170;DHT22;13129;48.012;10.352;2022-07-17T06:58:57;36.10;39.40
25170;DHT22;13129;48.012;10.352;2022-07-17T07:01:22;36.20;39.40
25170;DHT22;13129;48.012;10.352;2022-07-17T07:03:48;36.60;39.50
25170;DHT22;13129;48.012;10.352;2022-07-17T07:06:14;36.60;39.20
25170;DHT22;13129;48.012;10.352;2022-07-17T07:08:39;37.10;38.70
25170;DHT22;13129;48.012;10.352;2022-07-17T07:11:05;37.50;38.90
25170;DHT22;13129;48.012;10.352;2022-07-17T07:13:31;37.30;37.80
25170;DHT22;13129;48.012;10.352;2022-07-17T07:15:56;37.40;37.50
25170;DHT22;13129;48.012;10.352;2022-07-17T07:18:22;37.00;37.60
25170;DHT22;13129;48.012;10.352;2022-07-17T07:20:47;36.70;37.30
25170;DHT22;13129;48.012;10.352;2022-07-17T07:23:13;37.10;37.50
25170;DHT22;13129;48.012;10.352;2022-07-17T07:25:39;37.60;37.30
25170;DHT22;13129;48.012;10.352;2022-07-17T07:28:05;37.50;36.20
25170;DHT22;13129;48.012;10.352;2022-07-17T07:30:31;37.60;35.60
25170;DHT22;13129;48.012;10.352;2022-07-17T07:32:56;37.60;36.00
25170;DHT22;13129;48.012;10.352;2022-07-17T07:35:22;38.40;35.60
25170;DHT22;13129;48.012;10.352;2022-07-17T07:37:48;38.20;35.10
25170;DHT22;13129;48.012;10.352;2022-07-17T07:40:14;38.40;34.80
25170;DHT22;13129;48.012;10.352;2022-07-17T07:42:40;38.30;34.60
25170;DHT22;13129;48.012;10.352;2022-07-17T07:45:06;38.50;35.40
25170;DHT22;13129;48.012;10.352;2022-07-17T07:47:32;39.50;34.60
25170;DHT22;13129;48.012;10.352;2022-07-17T07:49:57;39.90;34.20
25170;DHT22;13129;48.012;10.352;2022-07-17T07:52:23;39.90;33.80
25170;DHT22;13129;48.012;10.352;2022-07-17T07:54:49;39.80;33.10
25170;DHT22;13129;48.012;10.352;2022-07-17T07:57:15;40.00;32.80
25170;DHT22;13129;48.012;10.352;2022-07-17T07:59:40;39.50;32.80
25170;DHT22;13129;48.012;10.352;2022-07-17T08:02:06;38.70;33.30
25170;DHT22;13129;48.012;10.352;2022-07-17T08:04:32;39.00;33.70
25170;DHT22;13129;48.012;10.352;2022-07-17T08:06:58;39.60;33.10
25170;DHT22;13129;48.012;10.352;2022-07-17T08:09:24;40.40;33.00
25170;DHT22;13129;48.012;10.352;2022-07-17T08:11:50;40.80;31.60
25170;DHT22;13129;48.012;10.352;2022-07-17T08:14:15;40.70;31.10
25170;DHT22;13129;48.012;10.352;2022-07-17T08:16:41;40.10;31.10
25170;DHT22;13129;48.012;10.352;2022-07-17T08:19:07;39.70;31.90
25170;DHT22;13129;48.012;10.352;2022-07-17T08:21:32;39.80;32.30
25170;DHT22;13129;48.012;10.352;2022-07-17T08:23:58;39.40;31.60
25170;DHT22;13129;48.012;10.352;2022-07-17T08:26:23;39.40;31.80
25170;DHT22;13129;48.012;10.352;2022-07-17T08:28:49;39.10;31.30
25170;DHT22;13129;48.012;10.352;2022-07-17T08:31:15;38.20;31.70
25170;DHT22;13129;48.012;10.352;2022-07-17T08:33:41;38.70;31.90
25170;DHT22;13129;48.012;10.352;2022-07-17T08:36:07;38.70;31.80
25170;DHT22;13129;48.012;10.352;2022-07-17T08:38:33;38.50;31.30
25170;DHT22;13129;48.012;10.352;2022-07-17T08:40:58;38.00;31.80
25170;DHT22;13129;48.012;10.352;2022-07-17T08:43:24;37.80;31.90
25170;DHT22;13129;48.012;10.352;2022-07-17T08:45:51;37.90;32.50
25170;DHT22;13129;48.012;10.352;2022-07-17T08:48:18;38.20;33.70
25170;DHT22;13129;48.012;10.352;2022-07-17T08:50:45;39.00;32.50
25170;DHT22;13129;48.012;10.352;2022-07-17T08:53:11;39.40;32.40
25170;DHT22;13129;48.012;10.352;2022-07-17T08:55:37;39.80;32.80
25170;DHT22;13129;48.012;10.352;2022-07-17T08:58:03;40.40;33.00
25170;DHT22;13129;48.012;10.352;2022-07-17T09:00:30;40.90;31.50
25170;DHT22;13129;48.012;10.352;2022-07-17T09:02:57;41.00;31.50
25170;DHT22;13129;48.012;10.352;2022-07-17T09:05:25;41.20;31.30
25170;DHT22;13129;48.012;10.352;2022-07-17T09:07:51;41.60;31.90
25170;DHT22;13129;48.012;10.352;2022-07-17T09:10:17;42.00;31.20
25170;DHT22;13129;48.012;10.352;2022-07-17T09:12:43;41.70;30.10
25170;DHT22;13129;48.012;10.352;2022-07-17T09:15:19;41.30;29.50
25170;DHT22;13129;48.012;10.352;2022-07-17T09:17:49;40.90;30.10
25170;DHT22;13129;48.012;10.352;2022-07-17T09:20:15;40.70;31.40
25170;DHT22;13129;48.012;10.352;2022-07-17T09:22:42;41.40;30.30
25170;DHT22;13129;48.012;10.352;2022-07-17T09:25:08;41.10;30.40
25170;DHT22;13129;48.012;10.352;2022-07-17T09:27:33;41.50;31.60
25170;DHT22;13129;48.012;10.352;2022-07-17T09:30:03;41.90;31.50
25170;DHT22;13129;48.012;10.352;2022-07-17T09:32:33;41.90;30.60
25170;DHT22;13129;48.012;10.352;2022-07-17T09:34:59;41.80;29.60
25170;DHT22;13129;48.012;10.352;2022-07-17T09:37:27;41.70;30.80
25170;DHT22;13129;48.012;10.352;2022-07-17T09:39:53;42.20;31.40
25170;DHT22;13129;48.012;10.352;2022-07-17T09:42:24;42.60;30.10
25170;DHT22;13129;48.012;10.352;2022-07-17T09:47:32;42.00;29.10
25170;DHT22;13129;48.012;10.352;2022-07-17T09:49:59;41.70;30.00
25170;DHT22;13129;48.012;10.352;2022-07-17T09:52:30;42.00;32.10
25170;DHT22;13129;48.012;10.352;2022-07-17T09:54:57;42.30;31.20
25170;DHT22;13129;48.012;10.352;2022-07-17T09:57:34;42.60;29.80
25170;DHT22;13129;48.012;10.352;2022-07-17T10:00:07;42.50;29.50
25170;DHT22;13129;48.012;10.352;2022-07-17T10:02:43;42.30;28.90
25170;DHT22;13129;48.012;10.352;2022-07-17T10:05:10;42.00;29.90
25170;DHT22;13129;48.012;10.352;2022-07-17T10:07:39;41.70;29.80
25170;DHT22;13129;48.012;10.352;2022-07-17T10:10:09;42.00;31.00
25170;DHT22;13129;48.012;10.352;2022-07-17T10:12:40;42.30;30.00
25170;DHT22;13129;48.012;10.352;2022-07-17T10:15:06;42.00;29.30
25170;DHT22;13129;48.012;10.352;2022-07-17T10:17:33;40.90;29.80
25170;DHT22;13129;48.012;10.352;2022-07-17T10:19:58;40.80;31.50
25170;DHT22;13129;48.012;10.352;2022-07-17T10:22:25;40.90;31.30
25170;DHT22;13129;48.012;10.352;2022-07-17T10:24:56;40.60;31.60
25170;DHT22;13129;48.012;10.352;2022-07-17T10:27:30;40.00;31.00
25170;DHT22;13129;48.012;10.352;2022-07-17T10:30:10;39.20;32.60
25170;DHT22;13129;48.012;10.352;2022-07-17T10:32:37;37.60;34.20
25170;DHT22;13129;48.012;10.352;2022-07-17T10:45:12;33.40;40.30
25170;DHT22;13129;48.012;10.352;2022-07-17T10:47:44;33.10;40.40
25170;DHT22;13129;48.012;10.352;2022-07-17T10:50:11;32.70;41.00
25170;DHT22;13129;48.012;10.352;2022-07-17T10:52:37;32.40;42.10
25170;DHT22;13129;48.012;10.352;2022-07-17T10:55:05;32.40;43.40
25170;DHT22;13129;48.012;10.352;2022-07-17T10:57:32;32.10;43.20
25170;DHT22;13129;48.012;10.352;2022-07-17T10:59:57;32.20;43.70
25170;DHT22;13129;48.012;10.352;2022-07-17T11:02:29;31.70;41.10
25170;DHT22;13129;48.012;10.352;2022-07-17T11:05:06;31.50;42.80
25170;DHT22;13129;48.012;10.352;2022-07-17T11:07:32;31.40;42.20
25170;DHT22;13129;48.012;10.352;2022-07-17T11:09:58;31.30;42.80
25170;DHT22;13129;48.012;10.352;2022-07-17T11:12:34;31.10;43.10
25170;DHT22;13129;48.012;10.352;2022-07-17T11:15:03;30.80;41.80
25170;DHT22;13129;48.012;10.352;2022-07-17T11:17:29;30.50;41.00
25170;DHT22;13129;48.012;10.352;2022-07-17T11:19:58;30.50;42.20
25170;DHT22;13129;48.012;10.352;2022-07-17T11:22:24;30.50;43.60
25170;DHT22;13129;48.012;10.352;2022-07-17T11:24:51;30.70;43.40
25170;DHT22;13129;48.012;10.352;2022-07-17T11:27:25;30.70;43.70
25170;DHT22;13129;48.012;10.352;2022-07-17T11:29:52;30.70;43.40
25170;DHT22;13129;48.012;10.352;2022-07-17T11:32:19;30.70;43.10
25170;DHT22;13129;48.012;10.352;2022-07-17T11:34:45;30.60;42.10
25170;DHT22;13129;48.012;10.352;2022-07-17T11:37:12;30.70;42.80
25170;DHT22;13129;48.012;10.352;2022-07-17T11:39:39;30.60;43.30
25170;DHT22;13129;48.012;10.352;2022-07-17T11:42:08;30.60;43.10
25170;DHT22;13129;48.012;10.352;2022-07-17T11:44:34;30.40;42.90
25170;DHT22;13129;48.012;10.352;2022-07-17T11:47:00;30.30;43.40
25170;DHT22;13129;48.012;10.352;2022-07-17T11:49:28;30.30;43.20
25170;DHT22;13129;48.012;10.352;2022-07-17T11:51:59;30.40;42.90
25170;DHT22;13129;48.012;10.352;2022-07-17T11:54:25;30.40;43.00
25170;DHT22;13129;48.012;10.352;2022-07-17T11:56:54;30.40;42.10
25170;DHT22;13129;48.012;10.352;2022-07-17T11:59:29;30.40;42.20
25170;DHT22;13129;48.012;10.352;2022-07-17T12:01:56;30.40;41.10
25170;DHT22;13129;48.012;10.352;2022-07-17T12:04:22;30.30;41.80
25170;DHT22;13129;48.012;10.352;2022-07-17T12:06:59;30.00;40.70
25170;DHT22;13129;48.012;10.352;2022-07-17T12:09:29;30.00;41.50
25170;DHT22;13129;48.012;10.352;2022-07-17T12:11:59;29.80;41.00
25170;DHT22;13129;48.012;10.352;2022-07-17T12:14:24;29.80;41.60
25170;DHT22;13129;48.012;10.352;2022-07-17T12:16:50;29.70;41.20
25170;DHT22;13129;48.012;10.352;2022-07-17T12:19:18;29.40;39.80
25170;DHT22;13129;48.012;10.352;2022-07-17T12:21:53;29.20;39.90
25170;DHT22;13129;48.012;10.352;2022-07-17T12:24:29;28.90;39.40
25170;DHT22;13129;48.012;10.352;2022-07-17T12:26:56;28.90;40.10
25170;DHT22;13129;48.012;10.352;2022-07-17T12:29:22;29.00;40.50
25170;DHT22;13129;48.012;10.352;2022-07-17T12:31:48;28.90;39.90
25170;DHT22;13129;48.012;10.352;2022-07-17T12:34:14;28.90;39.30
25170;DHT22;13129;48.012;10.352;2022-07-17T12:36:39;28.90;40.50
25170;DHT22;13129;48.012;10.352;2022-07-17T12:39:05;29.00;41.00
25170;DHT22;13129;48.012;10.352;2022-07-17T12:41:31;28.90;39.60
25170;DHT22;13129;48.012;10.352;2022-07-17T12:43:57;28.80;39.30
25170;DHT22;13129;48.012;10.352;2022-07-17T12:46:23;28.70;38.90
25170;DHT22;13129;48.012;10.352;2022-07-17T12:48:49;28.60;39.80
25170;DHT22;13129;48.012;10.352;2022-07-17T12:51:14;28.70;40.90
25170;DHT22;13129;48.012;10.352;2022-07-17T12:53:42;28.80;41.40
25170;DHT22;13129;48.012;10.352;2022-07-17T12:56:08;28.90;41.20
25170;DHT22;13129;48.012;10.352;2022-07-17T12:58:35;29.00;40.50
25170;DHT22;13129;48.012;10.352;2022-07-17T13:01:01;29.00;40.90
25170;DHT22;13129;48.012;10.352;2022-07-17T13:03:27;28.80;39.20
25170;DHT22;13129;48.012;10.352;2022-07-17T13:05:53;28.60;38.90
25170;DHT22;13129;48.012;10.352;2022-07-17T13:08:18;28.50;39.10
25170;DHT22;13129;48.012;10.352;2022-07-17T13:10:44;28.50;39.40
25170;DHT22;13129;48.012;10.352;2022-07-17T13:13:10;28.40;39.00
25170;DHT22;13129;48.012;10.352;2022-07-17T13:15:36;28.50;38.50
25170;DHT22;13129;48.012;10.352;2022-07-17T13:18:02;28.40;38.20
25170;DHT22;13129;48.012;10.352;2022-07-17T13:20:28;28.30;38.00
25170;DHT22;13129;48.012;10.352;2022-07-17T13:22:54;28.40;38.40
25170;DHT22;13129;48.012;10.352;2022-07-17T13:25:20;28.50;39.60
25170;DHT22;13129;48.012;10.352;2022-07-17T13:27:46;28.70;39.50
25170;DHT22;13129;48.012;10.352;2022-07-17T13:30:11;28.70;40.40
25170;DHT22;13129;48.012;10.352;2022-07-17T13:32:37;28.70;40.20
25170;DHT22;13129;48.012;10.352;2022-07-17T13:35:04;28.70;39.80
25170;DHT22;13129;48.012;10.352;2022-07-17T13:37:30;28.80;39.30
25170;DHT22;13129;48.012;10.352;2022-07-17T13:39:56;28.70;39.90
25170;DHT22;13129;48.012;10.352;2022-07-17T13:42:21;28.80;39.90
25170;DHT22;13129;48.012;10.352;2022-07-17T13:44:47;28.80;40.40
25170;DHT22;13129;48.012;10.352;2022-07-17T13:47:13;28.90;40.30
25170;DHT22;13129;48.012;10.352;2022-07-17T13:49:38;28.80;39.80
25170;DHT22;13129;48.012;10.352;2022-07-17T13:52:05;28.80;40.10
25170;DHT22;13129;48.012;10.352;2022-07-17T13:54:30;28.70;40.30
25170;DHT22;13129;48.012;10.352;2022-07-17T13:56:56;28.60;39.40
25170;DHT22;13129;48.012;10.352;2022-07-17T13:59:22;28.30;38.90
25170;DHT22;13129;48.012;10.352;2022-07-17T14:01:48;28.20;39.30
25170;DHT22;13129;48.012;10.352;2022-07-17T14:04:13;28.30;39.90
25170;DHT22;13129;48.012;10.352;2022-07-17T14:06:39;28.40;40.30
25170;DHT22;13129;48.012;10.352;2022-07-17T14:09:05;28.50;40.40
25170;DHT22;13129;48.012;10.352;2022-07-17T14:11:30;28.50;39.90
25170;DHT22;13129;48.012;10.352;2022-07-17T14:13:56;28.50;40.00
25170;DHT22;13129;48.012;10.352;2022-07-17T14:16:22;28.50;39.90
25170;DHT22;13129;48.012;10.352;2022-07-17T14:18:47;28.40;39.90
25170;DHT22;13129;48.012;10.352;2022-07-17T14:21:33;28.40;40.40
25170;DHT22;13129;48.012;10.352;2022-07-17T14:23:59;28.30;40.70
25170;DHT22;13129;48.012;10.352;2022-07-17T14:26:25;28.20;40.70
25170;DHT22;13129;48.012;10.352;2022-07-17T14:28:51;28.20;40.30
25170;DHT22;13129;48.012;10.352;2022-07-17T14:31:17;28.20;40.10
25170;DHT22;13129;48.012;10.352;2022-07-17T14:33:43;28.20;40.00
25170;DHT22;13129;48.012;10.352;2022-07-17T14:36:10;28.10;39.30
25170;DHT22;13129;48.012;10.352;2022-07-17T14:38:36;28.00;38.70
25170;DHT22;13129;48.012;10.352;2022-07-17T14:41:02;28.00;39.20
25170;DHT22;13129;48.012;10.352;2022-07-17T14:43:28;28.00;39.30
25170;DHT22;13129;48.012;10.352;2022-07-17T14:45:55;28.10;39.60
25170;DHT22;13129;48.012;10.352;2022-07-17T14:48:21;28.00;39.60
25170;DHT22;13129;48.012;10.352;2022-07-17T14:50:47;27.90;40.10
25170;DHT22;13129;48.012;10.352;2022-07-17T14:53:13;27.90;40.30
25170;DHT22;13129;48.012;10.352;2022-07-17T14:55:39;27.80;40.90
25170;DHT22;13129;48.012;10.352;2022-07-17T14:58:04;27.80;40.80
25170;DHT22;13129;48.012;10.352;2022-07-17T15:00:30;27.70;40.40
25170;DHT22;13129;48.012;10.352;2022-07-17T15:02:56;27.60;40.20
25170;DHT22;13129;48.012;10.352;2022-07-17T15:05:21;27.50;40.40
25170;DHT22;13129;48.012;10.352;2022-07-17T15:07:47;27.50;39.80
25170;DHT22;13129;48.012;10.352;2022-07-17T15:10:13;27.40;38.60
25170;DHT22;13129;48.012;10.352;2022-07-17T15:12:38;27.20;38.50
25170;DHT22;13129;48.012;10.352;2022-07-17T15:15:04;27.20;39.20
25170;DHT22;13129;48.012;10.352;2022-07-17T15:17:30;27.20;39.60
25170;DHT22;13129;48.012;10.352;2022-07-17T15:19:56;27.10;39.10
25170;DHT22;13129;48.012;10.352;2022-07-17T15:22:21;27.10;39.60
25170;DHT22;13129;48.012;10.352;2022-07-17T15:24:47;27.00;39.90
25170;DHT22;13129;48.012;10.352;2022-07-17T15:27:13;26.90;40.50
25170;DHT22;13129;48.012;10.352;2022-07-17T15:29:40;26.90;40.90
25170;DHT22;13129;48.012;10.352;2022-07-17T15:32:06;26.90;40.70
25170;DHT22;13129;48.012;10.352;2022-07-17T15:34:33;26.80;41.10
25170;DHT22;13129;48.012;10.352;2022-07-17T15:37:00;26.80;41.20
25170;DHT22;13129;48.012;10.352;2022-07-17T15:39:25;26.70;41.60
25170;DHT22;13129;48.012;10.352;2022-07-17T15:41:52;26.70;42.30
25170;DHT22;13129;48.012;10.352;2022-07-17T15:44:18;26.70;42.80
25170;DHT22;13129;48.012;10.352;2022-07-17T15:46:43;26.60;41.50
25170;DHT22;13129;48.012;10.352;2022-07-17T15:49:09;26.60;41.30
25170;DHT22;13129;48.012;10.352;2022-07-17T15:51:36;26.50;41.20
25170;DHT22;13129;48.012;10.352;2022-07-17T15:54:01;26.50;41.10
25170;DHT22;13129;48.012;10.352;2022-07-17T15:56:30;26.50;41.80
25170;DHT22;13129;48.012;10.352;2022-07-17T15:58:56;26.40;42.80
25170;DHT22;13129;48.012;10.352;2022-07-17T16:01:22;26.40;43.30
25170;DHT22;13129;48.012;10.352;2022-07-17T16:03:48;26.30;43.80
25170;DHT22;13129;48.012;10.352;2022-07-17T16:06:14;26.20;44.00
25170;DHT22;13129;48.012;10.352;2022-07-17T16:08:40;26.20;44.20
25170;DHT22;13129;48.012;10.352;2022-07-17T16:11:06;26.20;44.80
25170;DHT22;13129;48.012;10.352;2022-07-17T16:13:31;26.20;45.50
25170;DHT22;13129;48.012;10.352;2022-07-17T16:15:57;26.20;45.10
25170;DHT22;13129;48.012;10.352;2022-07-17T16:18:23;26.20;44.90
25170;DHT22;13129;48.012;10.352;2022-07-17T16:20:49;26.10;45.10
25170;DHT22;13129;48.012;10.352;2022-07-17T16:23:14;26.10;45.10
25170;DHT22;13129;48.012;10.352;2022-07-17T16:25:40;26.10;45.10
25170;DHT22;13129;48.012;10.352;2022-07-17T16:28:06;26.10;45.60
25170;DHT22;13129;48.012;10.352;2022-07-17T16:30:31;26.10;45.40
25170;DHT22;13129;48.012;10.352;2022-07-17T16:32:57;26.00;45.30
25170;DHT22;13129;48.012;10.352;2022-07-17T16:35:23;25.90;45.00
25170;DHT22;13129;48.012;10.352;2022-07-17T16:37:48;25.80;45.20
25170;DHT22;13129;48.012;10.352;2022-07-17T16:40:14;25.80;45.40
25170;DHT22;13129;48.012;10.352;2022-07-17T16:42:40;25.70;45.30
25170;DHT22;13129;48.012;10.352;2022-07-17T16:45:06;25.70;45.70
25170;DHT22;13129;48.012;10.352;2022-07-17T16:47:33;25.70;46.20
25170;DHT22;13129;48.012;10.352;2022-07-17T16:49:58;25.60;46.20
25170;DHT22;13129;48.012;10.352;2022-07-17T16:52:24;25.60;46.30
25170;DHT22;13129;48.012;10.352;2022-07-17T16:54:50;25.60;46.50
25170;DHT22;13129;48.012;10.352;2022-07-17T16:57:16;25.60;46.60
25170;DHT22;13129;48.012;10.352;2022-07-17T16:59:42;25.50;46.40
25170;DHT22;13129;48.012;10.352;2022-07-17T17:02:07;25.50;46.40
25170;DHT22;13129;48.012;10.352;2022-07-17T17:04:33;25.50;46.50
25170;DHT22;13129;48.012;10.352;2022-07-17T17:06:59;25.40;46.80
25170;DHT22;13129;48.012;10.352;2022-07-17T17:09:25;25.40;46.70
25170;DHT22;13129;48.012;10.352;2022-07-17T17:11:50;25.40;46.50
25170;DHT22;13129;48.012;10.352;2022-07-17T17:14:16;25.40;46.50
25170;DHT22;13129;48.012;10.352;2022-07-17T17:16:42;25.40;46.50
25170;DHT22;13129;48.012;10.352;2022-07-17T17:19:08;25.40;46.80
25170;DHT22;13129;48.012;10.352;2022-07-17T17:21:36;25.40;47.50
25170;DHT22;13129;48.012;10.352;2022-07-17T17:24:02;25.30;47.50
25170;DHT22;13129;48.012;10.352;2022-07-17T17:26:28;25.30;47.80
25170;DHT22;13129;48.012;10.352;2022-07-17T17:28:54;25.30;47.60
25170;DHT22;13129;48.012;10.352;2022-07-17T17:31:20;25.20;48.20
25170;DHT22;13129;48.012;10.352;2022-07-17T17:33:46;25.10;48.30
25170;DHT22;13129;48.012;10.352;2022-07-17T17:36:12;25.10;48.50
25170;DHT22;13129;48.012;10.352;2022-07-17T17:38:38;25.00;48.90
25170;DHT22;13129;48.012;10.352;2022-07-17T17:41:04;25.00;49.20
25170;DHT22;13129;48.012;10.352;2022-07-17T17:43:30;24.90;49.10
25170;DHT22;13129;48.012;10.352;2022-07-17T17:45:56;24.80;48.70
25170;DHT22;13129;48.012;10.352;2022-07-17T17:48:25;24.70;48.80
25170;DHT22;13129;48.012;10.352;2022-07-17T17:50:52;24.70;48.70
25170;DHT22;13129;48.012;10.352;2022-07-17T17:53:18;24.60;48.80
25170;DHT22;13129;48.012;10.352;2022-07-17T17:55:43;24.50;49.30
25170;DHT22;13129;48.012;10.352;2022-07-17T17:58:09;24.40;49.50
25170;DHT22;13129;48.012;10.352;2022-07-17T18:00:35;24.40;49.80
25170;DHT22;13129;48.012;10.352;2022-07-17T18:03:01;24.30;49.90
25170;DHT22;13129;48.012;10.352;2022-07-17T18:05:26;24.30;50.10
25170;DHT22;13129;48.012;10.352;2022-07-17T18:07:53;24.20;50.50
25170;DHT22;13129;48.012;10.352;2022-07-17T18:10:19;24.10;50.80
25170;DHT22;13129;48.012;10.352;2022-07-17T18:12:44;24.00;51.20
25170;DHT22;13129;48.012;10.352;2022-07-17T18:15:12;23.90;51.40
25170;DHT22;13129;48.012;10.352;2022-07-17T18:17:38;23.80;51.90
25170;DHT22;13129;48.012;10.352;2022-07-17T18:20:04;23.70;52.20
25170;DHT22;13129;48.012;10.352;2022-07-17T18:22:31;23.60;52.60
25170;DHT22;13129;48.012;10.352;2022-07-17T18:24:57;23.50;52.90
25170;DHT22;13129;48.012;10.352;2022-07-17T18:27:22;23.40;53.30
25170;DHT22;13129;48.012;10.352;2022-07-17T18:29:48;23.30;53.60
25170;DHT22;13129;48.012;10.352;2022-07-17T18:32:14;23.10;54.30
25170;DHT22;13129;48.012;10.352;2022-07-17T18:34:39;23.00;56.20
25170;DHT22;13129;48.012;10.352;2022-07-17T18:37:05;22.80;57.60
25170;DHT22;13129;48.012;10.352;2022-07-17T18:39:31;22.60;59.00
25170;DHT22;13129;48.012;10.352;2022-07-17T18:41:56;22.40;59.50
25170;DHT22;13129;48.012;10.352;2022-07-17T18:44:22;22.30;59.50
25170;DHT22;13129;48.012;10.352;2022-07-17T18:46:48;22.20;59.80
25170;DHT22;13129;48.012;10.352;2022-07-17T18:49:13;22.10;60.00
25170;DHT22;13129;48.012;10.352;2022-07-17T18:51:39;22.00;60.10
25170;DHT22;13129;48.012;10.352;2022-07-17T18:54:05;21.90;60.40
25170;DHT22;13129;48.012;10.352;2022-07-17T18:56:30;21.70;60.60
25170;DHT22;13129;48.012;10.352;2022-07-17T18:58:56;21.60;61.30
25170;DHT22;13129;48.012;10.352;2022-07-17T19:01:21;21.40;62.00
25170;DHT22;13129;48.012;10.352;2022-07-17T19:03:47;21.30;62.30